Terminal Aerodrome Forecast
Issued by NWS Wakefield, VA

Home | Current Version | Previous Version | Text Only | Print | Product List | Glossary On
Versions: 1 2 3 4 5 6 7 8 9 10 11 12 13 14 15
149
FTUS41 KAKQ 052322
TAFSBY
TAF
KSBY 052322Z 0600/0624 34004KT P6SM SCT250
     FM061100 VRB03KT 6SM -RA BR BKN080
     FM061400 08009KT 5SM -RA BR OVC050
     FM061700 09010KT 2SM RA BR OVC030
     FM061800 09010KT 1SM RA BR OVC010=

USA.gov is the U.S. government's official web portal to all federal, state and local government web resources and services.